createdAt,value
2019-03-12T00:01:27.004Z,14.20
2019-03-12T00:04:08.689Z,5.25
2019-03-12T00:06:49.550Z,12.68
2019-03-12T00:09:29.618Z,9.40
2019-03-12T00:12:09.987Z,21.30
2019-03-12T00:14:49.858Z,8.75
2019-03-12T00:17:30.086Z,8.40
2019-03-12T00:20:10.226Z,7.35
2019-03-12T00:22:51.796Z,8.93
2019-03-12T00:25:32.738Z,13.55
2019-03-12T00:28:13.947Z,23.27
2019-03-12T00:30:54.623Z,12.28
2019-03-12T00:33:35.998Z,9.10
2019-03-12T00:36:17.090Z,12.82
2019-03-12T00:38:58.013Z,15.68
2019-03-12T00:41:38.206Z,8.38
2019-03-12T00:44:18.351Z,9.65
2019-03-12T00:46:58.422Z,12.95
2019-03-12T00:49:38.606Z,9.43
2019-03-12T00:52:18.357Z,8.25
2019-03-12T00:54:48.595Z,12.13
2019-03-12T00:57:37.454Z,13.90
2019-03-12T01:00:18.741Z,11.68
2019-03-12T01:03:00.742Z,15.53
2019-03-12T01:05:41.719Z,10.28
2019-03-12T01:08:23.298Z,15.70
2019-03-12T01:11:04.638Z,15.20
2019-03-12T01:13:44.598Z,13.48
2019-03-12T01:16:24.988Z,12.47
2019-03-12T01:19:05.071Z,16.48
2019-03-12T01:21:45.261Z,12.88
2019-03-12T01:24:25.336Z,14.63
2019-03-12T01:27:06.138Z,15.72
2019-03-12T01:29:47.107Z,14.45
2019-03-12T01:32:28.237Z,15.35
2019-03-12T01:35:09.382Z,13.10
2019-03-12T01:37:54.502Z,16.50
2019-03-12T01:40:34.929Z,14.83
2019-03-12T01:43:15.955Z,16.52
2019-03-12T01:45:55.999Z,14.20
2019-03-12T01:48:36.297Z,17.87
2019-03-12T01:51:16.257Z,15.18
2019-03-12T01:53:56.195Z,12.95
2019-03-12T01:56:36.028Z,12.63
2019-03-12T01:59:17.858Z,22.95
2019-03-12T02:01:58.326Z,15.72
2019-03-12T02:04:40.709Z,17.20
2019-03-12T02:07:21.472Z,17.35
2019-03-12T02:10:02.611Z,9.95
2019-03-12T02:12:43.739Z,18.85
2019-03-12T02:15:23.805Z,15.30
2019-03-12T02:18:03.855Z,16.23
2019-03-12T02:20:43.782Z,13.83
2019-03-12T02:23:24.417Z,11.15
2019-03-12T02:26:04.230Z,9.15
2019-03-12T02:28:44.087Z,14.07
2019-03-12T02:31:25.271Z,14.03
2019-03-12T02:34:06.575Z,11.80
2019-03-12T02:36:34.715Z,19.85
2019-03-12T02:39:23.344Z,12.68
2019-03-12T02:42:24.901Z,13.38
2019-03-12T02:45:06.240Z,14.10
2019-03-12T02:47:46.781Z,11.70
2019-03-12T02:50:26.243Z,18.48
2019-03-12T02:53:05.883Z,24.07
2019-03-12T02:55:45.629Z,13.98
2019-03-12T02:58:26.198Z,12.20
2019-03-12T03:01:07.051Z,18.60
2019-03-12T03:03:48.075Z,16.57
2019-03-12T03:06:48.747Z,13.03
2019-03-12T03:09:29.361Z,13.93
2019-03-12T03:12:10.472Z,14.07
2019-03-12T03:14:51.638Z,11.45
2019-03-12T03:17:32.530Z,9.65
2019-03-12T03:20:13.125Z,18.25
2019-03-12T03:22:53.034Z,12.53
2019-03-12T03:25:33.583Z,16.12
2019-03-12T03:28:14.050Z,20.45
2019-03-12T03:30:53.910Z,16.37
2019-03-12T03:33:33.823Z,13.50
2019-03-12T03:36:18.721Z,11.70
2019-03-12T03:39:00.111Z,14.98
2019-03-12T03:41:40.976Z,10.75
2019-03-12T03:44:21.747Z,17.37
2019-03-12T03:47:03.003Z,12.43
2019-03-12T03:49:44.451Z,12.00
2019-03-12T03:52:25.407Z,11.78
2019-03-12T03:55:05.449Z,16.90
2019-03-12T03:57:45.760Z,11.60
2019-03-12T04:00:25.878Z,10.43
2019-03-12T04:03:06.160Z,12.63
2019-03-12T04:05:33.628Z,10.93
2019-03-12T04:08:20.165Z,16.52
2019-03-12T04:10:53.405Z,13.25
2019-03-12T04:13:42.215Z,9.70
2019-03-12T04:16:24.193Z,17.70
2019-03-12T04:19:05.055Z,18.12
2019-03-12T04:21:46.085Z,11.83
2019-03-12T04:24:27.378Z,12.20
2019-03-12T04:27:07.302Z,12.75
2019-03-12T04:29:47.187Z,12.50
2019-03-12T04:32:27.627Z,11.97
2019-03-12T04:35:07.360Z,14.15
2019-03-12T04:37:47.354Z,12.18
2019-03-12T04:40:27.372Z,14.85
2019-03-12T04:43:08.553Z,9.40
2019-03-12T04:45:49.428Z,15.20
2019-03-12T04:48:30.792Z,11.20
2019-03-12T04:51:11.704Z,10.72
2019-03-12T04:53:52.899Z,11.10
2019-03-12T04:56:34.252Z,11.28
2019-03-12T04:59:15.506Z,13.75
2019-03-12T05:02:02.585Z,9.98
2019-03-12T05:04:49.487Z,8.70
2019-03-12T05:07:29.548Z,11.22
2019-03-12T05:10:09.361Z,13.28
2019-03-12T05:12:50.345Z,10.03
2019-03-12T05:15:31.526Z,9.88
2019-03-12T05:18:12.370Z,9.45
2019-03-12T05:20:53.618Z,13.48
2019-03-12T05:23:35.068Z,12.63
2019-03-12T05:26:15.841Z,12.10
2019-03-12T05:28:56.962Z,11.18
2019-03-12T05:31:37.899Z,11.40
2019-03-12T05:34:23.365Z,12.78
2019-03-12T05:37:02.894Z,10.60
2019-03-12T05:39:43.398Z,12.95
2019-03-12T05:42:23.361Z,9.83
2019-03-12T05:45:03.287Z,12.65
2019-03-12T05:47:43.370Z,12.78
2019-03-12T05:50:23.424Z,12.65
2019-03-12T05:53:04.445Z,10.23
2019-03-12T05:55:45.421Z,9.98
2019-03-12T05:58:26.577Z,10.53
2019-03-12T06:01:07.362Z,8.75
2019-03-12T06:03:48.745Z,7.78
2019-03-12T06:06:29.821Z,9.88
2019-03-12T06:09:10.069Z,10.68
2019-03-12T06:11:50.205Z,8.20
2019-03-12T06:14:30.155Z,9.33
2019-03-12T06:17:10.497Z,7.97
2019-03-12T06:19:50.230Z,7.42
2019-03-12T06:22:31.557Z,5.62
2019-03-12T06:25:12.110Z,8.15
2019-03-12T06:27:59.873Z,6.83
2019-03-12T06:31:08.703Z,5.25
2019-03-12T06:34:09.617Z,7.85
2019-03-12T06:37:08.931Z,10.35
2019-03-12T06:40:08.263Z,13.18
2019-03-12T06:43:08.074Z,17.50
2019-03-12T06:46:08.556Z,8.78
2019-03-12T06:48:53.001Z,8.05
2019-03-12T06:51:53.493Z,9.58
2019-03-12T06:54:45.448Z,16.75
2019-03-12T06:57:44.773Z,9.23
2019-03-12T07:00:44.400Z,6.22
2019-03-12T07:03:35.361Z,6.05
2019-03-12T07:06:29.770Z,15.65
2019-03-12T07:09:41.219Z,6.20
2019-03-12T07:12:43.001Z,16.17
2019-03-12T07:15:43.250Z,5.83
2019-03-12T07:18:34.578Z,5.72
2019-03-12T07:21:35.123Z,10.23
2019-03-12T07:24:27.227Z,9.20
2019-03-12T07:27:28.268Z,4.53
2019-03-12T07:33:30.683Z,7.78
2019-03-12T07:36:30.055Z,5.30
2019-03-12T07:39:30.038Z,10.10
2019-03-12T07:42:30.322Z,7.50
2019-03-12T07:45:16.143Z,11.35
2019-03-12T07:48:04.565Z,6.62
2019-03-12T07:51:06.196Z,5.55
2019-03-12T07:53:59.357Z,11.33
2019-03-12T07:57:14.317Z,13.35
2019-03-12T08:03:16.476Z,4.37
2019-03-12T08:06:11.301Z,8.95
2019-03-12T08:09:37.885Z,6.35
2019-03-12T08:12:44.265Z,9.90
2019-03-12T08:15:44.407Z,11.60
2019-03-12T08:18:40.199Z,6.03
2019-03-12T08:21:28.815Z,4.87
2019-03-12T08:24:30.348Z,6.00
2019-03-12T08:27:30.409Z,5.35
2019-03-12T08:30:35.742Z,5.13
2019-03-12T08:33:22.519Z,5.33
2019-03-12T08:36:28.719Z,8.13
2019-03-12T08:39:28.347Z,5.53
2019-03-12T08:42:15.762Z,8.13
2019-03-12T08:45:16.749Z,7.40
2019-03-12T08:47:57.761Z,10.47
2019-03-12T08:50:39.183Z,4.08
2019-03-12T08:53:22.757Z,11.03
2019-03-12T08:55:57.865Z,9.13
2019-03-12T08:58:32.541Z,6.20
2019-03-12T09:01:21.955Z,7.83
2019-03-12T09:04:11.738Z,5.67
2019-03-12T09:07:09.146Z,10.33
2019-03-12T09:10:05.941Z,8.23
2019-03-12T09:12:51.314Z,11.40
2019-03-12T09:15:33.727Z,7.93
2019-03-12T09:18:26.118Z,7.53
2019-03-12T09:21:00.838Z,7.60
2019-03-12T09:23:56.577Z,12.93
2019-03-12T09:26:49.122Z,6.73
2019-03-12T09:29:23.166Z,5.50
2019-03-12T09:32:15.857Z,6.70
2019-03-12T09:34:49.608Z,7.80
2019-03-12T09:37:25.225Z,10.67
2019-03-12T09:40:06.545Z,7.27
2019-03-12T09:42:57.008Z,7.67
2019-03-12T09:45:44.794Z,5.20
2019-03-12T09:48:30.582Z,9.37
2019-03-12T09:51:05.823Z,10.30
2019-03-12T09:53:54.836Z,5.90
2019-03-12T09:56:41.571Z,8.30
2019-03-12T09:59:35.319Z,7.47
2019-03-12T10:02:15.130Z,8.83
2019-03-12T10:05:00.544Z,5.37
2019-03-12T10:07:46.721Z,5.00
2019-03-12T10:10:39.369Z,10.60
2019-03-12T10:13:29.787Z,9.90
2019-03-12T10:16:15.919Z,6.70
2019-03-12T10:19:10.595Z,7.23
2019-03-12T10:21:47.945Z,7.00
2019-03-12T10:24:34.263Z,5.20
2019-03-12T10:27:22.509Z,4.87
2019-03-12T10:30:03.317Z,7.47
2019-03-12T10:32:48.986Z,10.53
2019-03-12T10:35:24.250Z,9.57
2019-03-12T10:38:01.142Z,5.73
2019-03-12T10:40:51.866Z,5.70
2019-03-12T10:43:33.985Z,4.43
2019-03-12T10:46:29.089Z,5.83
2019-03-12T10:48:59.445Z,3.60
2019-03-12T10:51:27.821Z,6.53
2019-03-12T10:53:56.225Z,3.80
2019-03-12T10:56:24.485Z,5.00
2019-03-12T10:58:52.871Z,7.47
2019-03-12T11:01:25.519Z,8.67
2019-03-12T11:03:53.810Z,6.60
2019-03-12T11:06:22.069Z,9.90
2019-03-12T11:08:50.443Z,5.63
2019-03-12T11:11:19.083Z,8.00
2019-03-12T11:13:48.018Z,9.33
2019-03-12T11:16:16.553Z,5.67
2019-03-12T11:18:45.172Z,4.20
2019-03-12T11:21:13.586Z,6.43
2019-03-12T11:23:41.731Z,6.67
2019-03-12T11:26:13.929Z,8.60
2019-03-12T11:28:41.846Z,4.40
2019-03-12T11:31:09.943Z,4.53
2019-03-12T11:33:38.325Z,3.13
2019-03-12T11:36:07.010Z,7.20
2019-03-12T11:38:37.474Z,5.10
2019-03-12T11:41:06.290Z,5.13
2019-03-12T11:43:34.882Z,5.50
2019-03-12T11:46:04.007Z,3.80
2019-03-12T11:48:32.389Z,7.20
2019-03-12T11:51:03.645Z,7.77
2019-03-12T11:53:32.487Z,4.27
2019-03-12T11:56:01.028Z,6.10
2019-03-12T11:58:29.462Z,3.27
2019-03-12T12:01:05.548Z,5.60
2019-03-12T12:03:33.958Z,5.27
2019-03-12T12:06:02.251Z,4.60
2019-03-12T12:08:30.841Z,6.57
2019-03-12T12:10:59.167Z,6.70
2019-03-12T12:13:29.650Z,5.63
2019-03-12T12:15:58.061Z,5.80
2019-03-12T12:18:26.443Z,4.57
2019-03-12T12:20:55.055Z,4.53
2019-03-12T12:23:23.478Z,4.03
2019-03-12T12:25:53.620Z,3.00
2019-03-12T12:28:22.850Z,8.53
2019-03-12T12:30:51.273Z,4.93
2019-03-12T12:33:19.948Z,5.57
2019-03-12T12:35:48.117Z,2.33
2019-03-12T12:38:17.329Z,3.03
2019-03-12T12:40:45.749Z,3.27
2019-03-12T12:43:14.179Z,4.80
2019-03-12T12:45:42.533Z,3.33
2019-03-12T12:48:10.493Z,5.17
2019-03-12T12:50:41.750Z,2.77
2019-03-12T12:53:10.211Z,2.33
2019-03-12T12:55:38.745Z,4.17
2019-03-12T12:58:07.769Z,4.00
2019-03-12T13:00:38.295Z,3.90
2019-03-12T13:03:11.103Z,3.17
2019-03-12T13:05:39.401Z,4.90
2019-03-12T13:08:07.672Z,3.57
2019-03-12T13:10:36.140Z,9.60
2019-03-12T13:13:04.250Z,3.90
2019-03-12T13:15:38.883Z,7.07
2019-03-12T13:18:07.710Z,6.00
2019-03-12T13:20:36.229Z,3.20
2019-03-12T13:23:04.614Z,4.07
2019-03-12T13:25:32.885Z,3.70
2019-03-12T13:28:04.280Z,4.53
2019-03-12T13:30:33.747Z,6.83
2019-03-12T13:33:01.814Z,7.00
2019-03-12T13:35:30.189Z,4.00
2019-03-12T13:37:59.008Z,3.90
2019-03-12T13:40:30.902Z,7.13
2019-03-12T13:42:59.365Z,4.63
2019-03-12T13:45:27.722Z,3.97
2019-03-12T13:47:56.779Z,2.83
2019-03-12T13:50:25.373Z,6.90
2019-03-12T13:52:57.028Z,5.63
2019-03-12T13:55:24.597Z,3.53
2019-03-12T13:57:52.994Z,5.87
2019-03-12T14:00:21.386Z,3.30
2019-03-12T14:02:52.076Z,3.73
2019-03-12T14:05:20.394Z,8.13
2019-03-12T14:07:49.120Z,6.00
2019-03-12T14:10:18.095Z,8.33
2019-03-12T14:12:46.494Z,4.27
2019-03-12T14:15:23.265Z,8.47
2019-03-12T14:17:52.184Z,8.73
2019-03-12T14:20:50.609Z,6.43
2019-03-12T14:23:20.718Z,2.70
2019-03-12T14:25:48.786Z,4.70
2019-03-12T14:28:20.654Z,6.63
2019-03-12T14:30:48.421Z,4.33
2019-03-12T14:33:15.614Z,5.43
2019-03-12T14:35:51.481Z,3.40
2019-03-12T14:38:12.487Z,4.90
2019-03-12T14:40:39.637Z,4.33
2019-03-12T14:43:08.210Z,4.00
2019-03-12T14:45:37.170Z,2.83
2019-03-12T14:48:04.926Z,2.53
2019-03-12T14:50:32.110Z,7.03
2019-03-12T14:53:02.562Z,4.97
2019-03-12T14:55:30.521Z,4.40
2019-03-12T14:57:59.529Z,3.07
2019-03-12T15:00:26.672Z,4.77
2019-03-12T15:02:55.301Z,7.27
2019-03-12T15:05:23.700Z,2.57
2019-03-12T15:07:59.506Z,5.73
2019-03-12T15:10:27.562Z,3.33
2019-03-12T15:12:56.286Z,2.77
2019-03-12T15:15:24.826Z,3.27
2019-03-12T15:17:53.117Z,7.03
2019-03-12T15:20:21.237Z,6.20
2019-03-12T15:22:49.278Z,2.90
2019-03-12T15:25:17.466Z,4.20
2019-03-12T15:27:45.753Z,4.13
2019-03-12T15:30:16.390Z,3.60
2019-03-12T15:32:45.146Z,5.17
2019-03-12T15:35:13.423Z,2.47
2019-03-12T15:37:41.847Z,8.03
2019-03-12T15:40:10.125Z,5.90
2019-03-12T15:42:38.262Z,6.70
2019-03-12T15:45:07.137Z,5.23
2019-03-12T15:47:38.869Z,4.90
2019-03-12T15:50:09.646Z,5.20
2019-03-12T15:52:36.606Z,4.20
2019-03-12T15:55:04.766Z,5.07
2019-03-12T15:57:32.894Z,4.73
2019-03-12T16:00:00.926Z,3.83
2019-03-12T16:02:29.362Z,9.00
2019-03-12T16:04:57.448Z,3.70
2019-03-12T16:07:25.626Z,5.83
2019-03-12T16:09:53.844Z,5.53
2019-03-12T16:12:22.212Z,4.20
2019-03-12T16:14:50.931Z,2.40
2019-03-12T16:17:19.266Z,3.80
2019-03-12T16:19:47.189Z,3.70
2019-03-12T16:22:15.486Z,3.73
2019-03-12T16:24:43.757Z,8.60
2019-03-12T16:27:11.686Z,2.10
2019-03-12T16:29:40.329Z,3.57
2019-03-12T16:32:08.489Z,3.30
2019-03-12T16:34:37.006Z,2.70
2019-03-12T16:37:05.159Z,4.90
2019-03-12T16:39:33.450Z,3.23
2019-03-12T16:42:02.007Z,4.20
2019-03-12T16:44:30.033Z,4.20
2019-03-12T16:46:58.997Z,3.73
2019-03-12T16:49:27.024Z,4.80
2019-03-12T16:51:55.189Z,3.23
2019-03-12T16:54:23.737Z,3.27
2019-03-12T16:56:52.230Z,4.10
2019-03-12T16:59:20.617Z,2.33
2019-03-12T17:01:48.731Z,4.77
2019-03-12T17:04:17.500Z,4.63
2019-03-12T17:06:45.909Z,3.20
2019-03-12T17:09:14.058Z,1.97
2019-03-12T17:11:42.385Z,3.60
2019-03-12T17:14:10.605Z,2.50
2019-03-12T17:16:39.058Z,3.47
2019-03-12T17:19:07.148Z,3.17
2019-03-12T17:21:35.501Z,4.33
2019-03-12T17:24:03.781Z,3.47
2019-03-12T17:26:31.789Z,4.27
2019-03-12T17:28:59.873Z,5.73
2019-03-12T17:31:28.237Z,5.57
2019-03-12T17:33:56.675Z,6.33
2019-03-12T17:36:28.268Z,4.83
2019-03-12T17:38:54.875Z,3.37
2019-03-12T17:41:24.178Z,4.70
2019-03-12T17:43:52.530Z,1.90
2019-03-12T17:46:20.549Z,1.27
2019-03-12T17:48:48.595Z,5.20
2019-03-12T17:51:16.717Z,3.90
2019-03-12T17:53:44.886Z,4.90
2019-03-12T17:56:12.911Z,2.30
2019-03-12T17:58:41.042Z,3.17
2019-03-12T18:01:09.254Z,4.63
2019-03-12T18:03:37.273Z,2.63
2019-03-12T18:06:05.793Z,6.07
2019-03-12T18:08:33.836Z,9.03
2019-03-12T18:11:01.758Z,2.83
2019-03-12T18:13:29.842Z,4.47
2019-03-12T18:15:57.789Z,2.00
2019-03-12T18:18:25.903Z,3.63
2019-03-12T18:20:56.311Z,6.67
2019-03-12T18:23:24.675Z,3.93
2019-03-12T18:25:53.152Z,1.73
2019-03-12T18:28:21.093Z,3.80
2019-03-12T18:30:49.500Z,2.00
2019-03-12T18:33:18.167Z,2.73
2019-03-12T18:35:46.542Z,4.63
2019-03-12T18:38:14.709Z,2.00
2019-03-12T18:40:43.141Z,1.63
2019-03-12T18:43:14.714Z,1.93
2019-03-12T18:45:40.929Z,2.63
2019-03-12T18:48:08.318Z,2.03
2019-03-12T18:50:35.635Z,5.83
2019-03-12T18:53:04.114Z,1.53
2019-03-12T18:55:40.729Z,4.57
2019-03-12T18:58:09.215Z,3.30
2019-03-12T19:00:37.493Z,5.13
2019-03-12T19:03:06.122Z,4.30
2019-03-12T19:05:34.610Z,6.20
2019-03-12T19:08:02.981Z,3.90
2019-03-12T19:10:31.143Z,2.30
2019-03-12T19:12:59.527Z,2.20
2019-03-12T19:15:28.431Z,5.13
2019-03-12T19:17:56.798Z,2.67
2019-03-12T19:20:25.258Z,4.33
2019-03-12T19:22:54.299Z,2.73
2019-03-12T19:25:22.424Z,3.03
2019-03-12T19:27:59.727Z,2.53
2019-03-12T19:30:22.177Z,2.30
2019-03-12T19:32:56.869Z,1.80
2019-03-12T19:35:25.018Z,2.57
2019-03-12T19:37:53.199Z,2.43
2019-03-12T19:40:21.509Z,2.50
2019-03-12T19:42:49.780Z,2.50
2019-03-12T19:45:18.036Z,4.87
2019-03-12T19:47:46.170Z,1.93
2019-03-12T19:50:15.150Z,2.10
2019-03-12T19:52:43.425Z,2.50
2019-03-12T19:55:13.350Z,3.23
2019-03-12T19:57:41.514Z,3.20
2019-03-12T20:00:12.642Z,2.60
2019-03-12T20:02:41.073Z,3.40
2019-03-12T20:05:09.657Z,3.97
2019-03-12T20:07:37.822Z,1.70
2019-03-12T20:10:51.264Z,7.20
2019-03-12T20:14:05.511Z,6.07
2019-03-12T20:17:17.291Z,2.33
2019-03-12T20:20:50.515Z,2.50
2019-03-12T20:23:50.514Z,4.03
2019-03-12T20:27:02.481Z,1.93
2019-03-12T20:29:52.141Z,7.83
2019-03-12T20:32:50.385Z,3.33
2019-03-12T20:35:53.926Z,8.00
2019-03-12T20:38:59.237Z,3.80
2019-03-12T20:42:17.008Z,2.83
2019-03-12T20:45:32.097Z,3.60
2019-03-12T20:48:18.990Z,4.95
2019-03-12T20:51:24.384Z,6.20
2019-03-12T20:54:33.890Z,2.80
2019-03-12T20:57:43.515Z,4.43
2019-03-12T21:00:56.011Z,4.40
2019-03-12T21:04:10.890Z,3.07
2019-03-12T21:07:24.773Z,4.07
2019-03-12T21:10:42.289Z,2.60
2019-03-12T21:13:46.654Z,4.60
2019-03-12T21:16:40.329Z,2.93
2019-03-12T21:19:44.800Z,8.53
2019-03-12T21:23:06.578Z,4.50
2019-03-12T21:25:59.303Z,2.37
2019-03-12T21:28:50.678Z,3.20
2019-03-12T21:31:17.786Z,3.23
2019-03-12T21:33:44.886Z,4.50
2019-03-12T21:36:11.911Z,3.90
2019-03-12T21:38:38.826Z,5.33
2019-03-12T21:41:06.194Z,4.70
2019-03-12T21:43:33.668Z,3.40
2019-03-12T21:46:00.791Z,1.83
2019-03-12T21:48:27.941Z,1.83
2019-03-12T21:50:54.963Z,1.50
2019-03-12T21:53:22.678Z,1.90
2019-03-12T21:55:49.818Z,4.90
2019-03-12T21:58:17.103Z,2.62
2019-03-12T22:00:44.757Z,3.10
2019-03-12T22:03:12.289Z,2.60
2019-03-12T22:05:39.421Z,3.50
2019-03-12T22:08:06.666Z,3.33
2019-03-12T22:10:33.802Z,3.35
2019-03-12T22:13:00.938Z,4.08
2019-03-12T22:15:29.666Z,5.47
2019-03-12T22:17:57.377Z,6.62
2019-03-12T22:20:25.589Z,7.45
2019-03-12T22:22:58.193Z,6.75
2019-03-12T22:25:25.741Z,8.10
2019-03-12T22:27:53.737Z,9.35
2019-03-12T22:30:22.634Z,9.20
2019-03-12T22:32:50.333Z,10.90
2019-03-12T22:35:17.473Z,12.07
2019-03-12T22:37:44.732Z,15.43
2019-03-12T22:40:12.470Z,13.72
2019-03-12T22:42:40.798Z,16.12
2019-03-12T22:45:09.309Z,14.00
2019-03-12T22:47:37.909Z,21.05
2019-03-12T22:50:07.169Z,21.00
2019-03-12T22:52:35.758Z,22.00
2019-03-12T22:55:04.349Z,17.65
2019-03-12T22:57:32.244Z,22.13
2019-03-12T23:00:00.425Z,22.70
2019-03-12T23:02:28.588Z,26.97
2019-03-12T23:04:57.155Z,17.90
2019-03-12T23:07:25.239Z,23.25
2019-03-12T23:09:53.340Z,16.02
2019-03-12T23:12:21.595Z,23.02
2019-03-12T23:14:49.936Z,16.93
2019-03-12T23:17:17.876Z,18.75
2019-03-12T23:19:46.017Z,22.48
2019-03-12T23:22:14.380Z,22.82
2019-03-12T23:24:42.283Z,16.25
2019-03-12T23:27:10.293Z,15.45
2019-03-12T23:29:38.289Z,20.82
2019-03-12T23:32:06.606Z,15.05
2019-03-12T23:34:34.702Z,13.50
2019-03-12T23:37:02.872Z,13.60
2019-03-12T23:39:31.583Z,12.90
2019-03-12T23:41:59.738Z,17.95
2019-03-12T23:44:28.091Z,18.87
2019-03-12T23:46:56.335Z,14.25
2019-03-12T23:49:24.645Z,16.37
2019-03-12T23:51:53.281Z,14.68
2019-03-12T23:54:21.538Z,14.40
2019-03-12T23:56:49.810Z,13.13
2019-03-12T23:59:18.710Z,23.30
